<?xml version="1.0" encoding="UTF-8" standalone="no" ?>
<gpx xmlns="http://www.topografix.com/GPX/1/1" xmlns:xsi="http://www.w3.org/2001/XMLSchema-instance" xsi:schemaLocation="http://www.topografix.com/GPX/1/1 http://www.topografix.com/GPX/1/1/gpx.xsd" version="1.1" creator="VisuGPX - https://www.visugpx.com">
  <metadata>
    <name>Randonnée du 28/03/2021 à 13:27</name>
    <desc><![CDATA[Tour de Saint Jeannet]]></desc>
  </metadata>
  <trk>
    <name><![CDATA[Randonnée du 28/03/2021 à 13:27]]></name>
    <trkseg>
      <trkpt lat="43.74212" lon="7.14943">
        <ele>331</ele>
        <time>2021-03-28T13:27:53+02:00</time>
      </trkpt>
      <trkpt lat="43.74235" lon="7.14938">
        <ele>319</ele>
        <time>2021-03-28T13:29:33+02:00</time>
      </trkpt>
      <trkpt lat="43.74233" lon="7.14969">
        <ele>318</ele>
        <time>2021-03-28T13:30:00+02:00</time>
      </trkpt>
      <trkpt lat="43.74223" lon="7.14998">
        <ele>317</ele>
        <time>2021-03-28T13:30:22+02:00</time>
      </trkpt>
      <trkpt lat="43.74215" lon="7.15028">
        <ele>316</ele>
        <time>2021-03-28T13:30:47+02:00</time>
      </trkpt>
      <trkpt lat="43.74207" lon="7.15059">
        <ele>314</ele>
        <time>2021-03-28T13:31:11+02:00</time>
      </trkpt>
      <trkpt lat="43.74201" lon="7.15089">
        <ele>310</ele>
        <time>2021-03-28T13:31:34+02:00</time>
      </trkpt>
      <trkpt lat="43.74189" lon="7.15117">
        <ele>310</ele>
        <time>2021-03-28T13:31:56+02:00</time>
      </trkpt>
      <trkpt lat="43.74181" lon="7.15147">
        <ele>308</ele>
        <time>2021-03-28T13:32:19+02:00</time>
      </trkpt>
      <trkpt lat="43.74182" lon="7.15178">
        <ele>304</ele>
        <time>2021-03-28T13:32:42+02:00</time>
      </trkpt>
      <trkpt lat="43.7418" lon="7.15209">
        <ele>301</ele>
        <time>2021-03-28T13:33:02+02:00</time>
      </trkpt>
      <trkpt lat="43.74177" lon="7.1524">
        <ele>309</ele>
        <time>2021-03-28T13:33:22+02:00</time>
      </trkpt>
      <trkpt lat="43.74179" lon="7.15271">
        <ele>305</ele>
        <time>2021-03-28T13:33:40+02:00</time>
      </trkpt>
      <trkpt lat="43.74178" lon="7.15302">
        <ele>301</ele>
        <time>2021-03-28T13:34:01+02:00</time>
      </trkpt>
      <trkpt lat="43.74168" lon="7.15331">
        <ele>305</ele>
        <time>2021-03-28T13:34:22+02:00</time>
      </trkpt>
      <trkpt lat="43.74158" lon="7.1536">
        <ele>299</ele>
        <time>2021-03-28T13:34:43+02:00</time>
      </trkpt>
      <trkpt lat="43.74151" lon="7.1539">
        <ele>296</ele>
        <time>2021-03-28T13:35:02+02:00</time>
      </trkpt>
      <trkpt lat="43.74149" lon="7.15423">
        <ele>292</ele>
        <time>2021-03-28T13:35:25+02:00</time>
      </trkpt>
      <trkpt lat="43.74153" lon="7.15454">
        <ele>292</ele>
        <time>2021-03-28T13:35:50+02:00</time>
      </trkpt>
      <trkpt lat="43.74155" lon="7.15486">
        <ele>293</ele>
        <time>2021-03-28T13:36:08+02:00</time>
      </trkpt>
      <trkpt lat="43.74158" lon="7.15517">
        <ele>293</ele>
        <time>2021-03-28T13:36:26+02:00</time>
      </trkpt>
      <trkpt lat="43.74155" lon="7.15549">
        <ele>290</ele>
        <time>2021-03-28T13:36:48+02:00</time>
      </trkpt>
      <trkpt lat="43.74154" lon="7.15582">
        <ele>290</ele>
        <time>2021-03-28T13:37:08+02:00</time>
      </trkpt>
      <trkpt lat="43.74161" lon="7.15612">
        <ele>283</ele>
        <time>2021-03-28T13:37:32+02:00</time>
      </trkpt>
      <trkpt lat="43.7416" lon="7.15643">
        <ele>281</ele>
        <time>2021-03-28T13:37:53+02:00</time>
      </trkpt>
      <trkpt lat="43.74162" lon="7.15675">
        <ele>280</ele>
        <time>2021-03-28T13:38:25+02:00</time>
      </trkpt>
      <trkpt lat="43.74164" lon="7.15707">
        <ele>284</ele>
        <time>2021-03-28T13:38:46+02:00</time>
      </trkpt>
      <trkpt lat="43.74162" lon="7.15739">
        <ele>277</ele>
        <time>2021-03-28T13:39:01+02:00</time>
      </trkpt>
      <trkpt lat="43.7415" lon="7.15766">
        <ele>272</ele>
        <time>2021-03-28T13:39:22+02:00</time>
      </trkpt>
      <trkpt lat="43.74143" lon="7.15797">
        <ele>269</ele>
        <time>2021-03-28T13:39:43+02:00</time>
      </trkpt>
      <trkpt lat="43.74143" lon="7.15829">
        <ele>267</ele>
        <time>2021-03-28T13:40:01+02:00</time>
      </trkpt>
      <trkpt lat="43.74142" lon="7.15862">
        <ele>266</ele>
        <time>2021-03-28T13:40:25+02:00</time>
      </trkpt>
      <trkpt lat="43.74143" lon="7.15894">
        <ele>268</ele>
        <time>2021-03-28T13:40:46+02:00</time>
      </trkpt>
      <trkpt lat="43.74151" lon="7.15924">
        <ele>269</ele>
        <time>2021-03-28T13:41:07+02:00</time>
      </trkpt>
      <trkpt lat="43.74159" lon="7.15952">
        <ele>270</ele>
        <time>2021-03-28T13:41:27+02:00</time>
      </trkpt>
      <trkpt lat="43.74159" lon="7.15984">
        <ele>275</ele>
        <time>2021-03-28T13:41:46+02:00</time>
      </trkpt>
      <trkpt lat="43.74172" lon="7.16011">
        <ele>267</ele>
        <time>2021-03-28T13:42:22+02:00</time>
      </trkpt>
      <trkpt lat="43.74176" lon="7.16042">
        <ele>268</ele>
        <time>2021-03-28T13:42:48+02:00</time>
      </trkpt>
      <trkpt lat="43.74183" lon="7.16072">
        <ele>269</ele>
        <time>2021-03-28T13:43:04+02:00</time>
      </trkpt>
      <trkpt lat="43.74188" lon="7.16102">
        <ele>270</ele>
        <time>2021-03-28T13:43:21+02:00</time>
      </trkpt>
      <trkpt lat="43.74189" lon="7.16134">
        <ele>269</ele>
        <time>2021-03-28T13:43:39+02:00</time>
      </trkpt>
      <trkpt lat="43.74197" lon="7.16164">
        <ele>269</ele>
        <time>2021-03-28T13:44:08+02:00</time>
      </trkpt>
      <trkpt lat="43.74202" lon="7.16195">
        <ele>272</ele>
        <time>2021-03-28T13:45:42+02:00</time>
      </trkpt>
      <trkpt lat="43.74203" lon="7.16227">
        <ele>275</ele>
        <time>2021-03-28T13:46:06+02:00</time>
      </trkpt>
      <trkpt lat="43.74216" lon="7.16252">
        <ele>274</ele>
        <time>2021-03-28T13:46:26+02:00</time>
      </trkpt>
      <trkpt lat="43.74228" lon="7.16279">
        <ele>272</ele>
        <time>2021-03-28T13:46:50+02:00</time>
      </trkpt>
      <trkpt lat="43.74236" lon="7.16309">
        <ele>272</ele>
        <time>2021-03-28T13:47:12+02:00</time>
      </trkpt>
      <trkpt lat="43.7425" lon="7.16334">
        <ele>269</ele>
        <time>2021-03-28T13:47:31+02:00</time>
      </trkpt>
      <trkpt lat="43.7426" lon="7.16363">
        <ele>264</ele>
        <time>2021-03-28T13:47:54+02:00</time>
      </trkpt>
      <trkpt lat="43.74272" lon="7.16389">
        <ele>263</ele>
        <time>2021-03-28T13:48:14+02:00</time>
      </trkpt>
      <trkpt lat="43.74283" lon="7.16417">
        <ele>259</ele>
        <time>2021-03-28T13:48:39+02:00</time>
      </trkpt>
      <trkpt lat="43.74288" lon="7.16448">
        <ele>259</ele>
        <time>2021-03-28T13:48:59+02:00</time>
      </trkpt>
      <trkpt lat="43.74296" lon="7.16478">
        <ele>264</ele>
        <time>2021-03-28T13:49:20+02:00</time>
      </trkpt>
      <trkpt lat="43.74307" lon="7.16507">
        <ele>261</ele>
        <time>2021-03-28T13:49:42+02:00</time>
      </trkpt>
      <trkpt lat="43.74318" lon="7.16535">
        <ele>263</ele>
        <time>2021-03-28T13:50:03+02:00</time>
      </trkpt>
      <trkpt lat="43.7433" lon="7.16563">
        <ele>265</ele>
        <time>2021-03-28T13:50:25+02:00</time>
      </trkpt>
      <trkpt lat="43.74343" lon="7.16589">
        <ele>264</ele>
        <time>2021-03-28T13:50:46+02:00</time>
      </trkpt>
      <trkpt lat="43.74354" lon="7.16617">
        <ele>264</ele>
        <time>2021-03-28T13:51:11+02:00</time>
      </trkpt>
      <trkpt lat="43.74367" lon="7.16643">
        <ele>266</ele>
        <time>2021-03-28T13:51:49+02:00</time>
      </trkpt>
      <trkpt lat="43.74381" lon="7.1667">
        <ele>268</ele>
        <time>2021-03-28T13:52:19+02:00</time>
      </trkpt>
      <trkpt lat="43.74399" lon="7.16689">
        <ele>273</ele>
        <time>2021-03-28T13:52:48+02:00</time>
      </trkpt>
      <trkpt lat="43.74418" lon="7.16708">
        <ele>274</ele>
        <time>2021-03-28T13:53:18+02:00</time>
      </trkpt>
      <trkpt lat="43.74401" lon="7.16728">
        <ele>282</ele>
        <time>2021-03-28T13:54:03+02:00</time>
      </trkpt>
      <trkpt lat="43.74408" lon="7.16758">
        <ele>281</ele>
        <time>2021-03-28T13:55:31+02:00</time>
      </trkpt>
      <trkpt lat="43.74403" lon="7.16789">
        <ele>284</ele>
        <time>2021-03-28T13:56:00+02:00</time>
      </trkpt>
      <trkpt lat="43.74393" lon="7.16818">
        <ele>283</ele>
        <time>2021-03-28T13:56:27+02:00</time>
      </trkpt>
      <trkpt lat="43.74381" lon="7.16845">
        <ele>286</ele>
        <time>2021-03-28T13:56:48+02:00</time>
      </trkpt>
      <trkpt lat="43.74367" lon="7.16871">
        <ele>287</ele>
        <time>2021-03-28T13:57:09+02:00</time>
      </trkpt>
      <trkpt lat="43.7435" lon="7.16893">
        <ele>291</ele>
        <time>2021-03-28T13:57:32+02:00</time>
      </trkpt>
      <trkpt lat="43.74368" lon="7.16873">
        <ele>288</ele>
        <time>2021-03-28T14:02:06+02:00</time>
      </trkpt>
      <trkpt lat="43.74382" lon="7.16848">
        <ele>290</ele>
        <time>2021-03-28T14:02:45+02:00</time>
      </trkpt>
      <trkpt lat="43.74396" lon="7.16822">
        <ele>289</ele>
        <time>2021-03-28T14:03:10+02:00</time>
      </trkpt>
      <trkpt lat="43.74407" lon="7.16795">
        <ele>285</ele>
        <time>2021-03-28T14:03:31+02:00</time>
      </trkpt>
      <trkpt lat="43.74404" lon="7.16763">
        <ele>284</ele>
        <time>2021-03-28T14:03:51+02:00</time>
      </trkpt>
      <trkpt lat="43.74398" lon="7.16733">
        <ele>278</ele>
        <time>2021-03-28T14:04:16+02:00</time>
      </trkpt>
      <trkpt lat="43.74418" lon="7.16714">
        <ele>283</ele>
        <time>2021-03-28T14:04:42+02:00</time>
      </trkpt>
      <trkpt lat="43.74437" lon="7.16699">
        <ele>285</ele>
        <time>2021-03-28T14:05:03+02:00</time>
      </trkpt>
      <trkpt lat="43.74457" lon="7.16681">
        <ele>286</ele>
        <time>2021-03-28T14:05:29+02:00</time>
      </trkpt>
      <trkpt lat="43.74478" lon="7.16672">
        <ele>281</ele>
        <time>2021-03-28T14:05:51+02:00</time>
      </trkpt>
      <trkpt lat="43.74498" lon="7.16654">
        <ele>280</ele>
        <time>2021-03-28T14:06:13+02:00</time>
      </trkpt>
      <trkpt lat="43.74516" lon="7.16634">
        <ele>285</ele>
        <time>2021-03-28T14:06:44+02:00</time>
      </trkpt>
      <trkpt lat="43.74536" lon="7.16619">
        <ele>283</ele>
        <time>2021-03-28T14:07:29+02:00</time>
      </trkpt>
      <trkpt lat="43.74555" lon="7.16601">
        <ele>288</ele>
        <time>2021-03-28T14:08:04+02:00</time>
      </trkpt>
      <trkpt lat="43.74572" lon="7.16581">
        <ele>288</ele>
        <time>2021-03-28T14:08:25+02:00</time>
      </trkpt>
      <trkpt lat="43.74589" lon="7.16559">
        <ele>289</ele>
        <time>2021-03-28T14:08:54+02:00</time>
      </trkpt>
      <trkpt lat="43.74608" lon="7.16542">
        <ele>291</ele>
        <time>2021-03-28T14:09:26+02:00</time>
      </trkpt>
      <trkpt lat="43.74627" lon="7.16522">
        <ele>294</ele>
        <time>2021-03-28T14:10:07+02:00</time>
      </trkpt>
      <trkpt lat="43.74647" lon="7.16505">
        <ele>297</ele>
        <time>2021-03-28T14:10:42+02:00</time>
      </trkpt>
      <trkpt lat="43.74661" lon="7.1648">
        <ele>295</ele>
        <time>2021-03-28T14:11:06+02:00</time>
      </trkpt>
      <trkpt lat="43.7468" lon="7.16464">
        <ele>295</ele>
        <time>2021-03-28T14:11:34+02:00</time>
      </trkpt>
      <trkpt lat="43.74695" lon="7.1644">
        <ele>297</ele>
        <time>2021-03-28T14:12:07+02:00</time>
      </trkpt>
      <trkpt lat="43.74713" lon="7.16421">
        <ele>303</ele>
        <time>2021-03-28T14:12:37+02:00</time>
      </trkpt>
      <trkpt lat="43.74728" lon="7.16396">
        <ele>304</ele>
        <time>2021-03-28T14:13:16+02:00</time>
      </trkpt>
      <trkpt lat="43.7474" lon="7.16369">
        <ele>302</ele>
        <time>2021-03-28T14:14:20+02:00</time>
      </trkpt>
      <trkpt lat="43.74724" lon="7.16347">
        <ele>304</ele>
        <time>2021-03-28T14:15:10+02:00</time>
      </trkpt>
      <trkpt lat="43.74732" lon="7.16317">
        <ele>316</ele>
        <time>2021-03-28T14:16:35+02:00</time>
      </trkpt>
      <trkpt lat="43.74745" lon="7.16291">
        <ele>327</ele>
        <time>2021-03-28T14:18:23+02:00</time>
      </trkpt>
      <trkpt lat="43.74767" lon="7.16285">
        <ele>327</ele>
        <time>2021-03-28T14:19:29+02:00</time>
      </trkpt>
      <trkpt lat="43.74747" lon="7.16269">
        <ele>340</ele>
        <time>2021-03-28T14:20:24+02:00</time>
      </trkpt>
      <trkpt lat="43.74745" lon="7.16237">
        <ele>338</ele>
        <time>2021-03-28T14:21:17+02:00</time>
      </trkpt>
      <trkpt lat="43.74751" lon="7.16206">
        <ele>341</ele>
        <time>2021-03-28T14:21:50+02:00</time>
      </trkpt>
      <trkpt lat="43.74758" lon="7.16175">
        <ele>346</ele>
        <time>2021-03-28T14:22:56+02:00</time>
      </trkpt>
      <trkpt lat="43.7477" lon="7.16147">
        <ele>352</ele>
        <time>2021-03-28T14:24:02+02:00</time>
      </trkpt>
      <trkpt lat="43.74778" lon="7.16116">
        <ele>350</ele>
        <time>2021-03-28T14:24:26+02:00</time>
      </trkpt>
      <trkpt lat="43.74781" lon="7.16084">
        <ele>349</ele>
        <time>2021-03-28T14:24:45+02:00</time>
      </trkpt>
      <trkpt lat="43.74778" lon="7.16052">
        <ele>349</ele>
        <time>2021-03-28T14:25:06+02:00</time>
      </trkpt>
      <trkpt lat="43.74776" lon="7.1602">
        <ele>358</ele>
        <time>2021-03-28T14:25:30+02:00</time>
      </trkpt>
      <trkpt lat="43.74768" lon="7.15989">
        <ele>357</ele>
        <time>2021-03-28T14:25:55+02:00</time>
      </trkpt>
      <trkpt lat="43.74769" lon="7.15957">
        <ele>356</ele>
        <time>2021-03-28T14:26:17+02:00</time>
      </trkpt>
      <trkpt lat="43.74772" lon="7.15926">
        <ele>359</ele>
        <time>2021-03-28T14:27:00+02:00</time>
      </trkpt>
      <trkpt lat="43.74784" lon="7.15898">
        <ele>367</ele>
        <time>2021-03-28T14:27:37+02:00</time>
      </trkpt>
      <trkpt lat="43.74796" lon="7.15871">
        <ele>369</ele>
        <time>2021-03-28T14:28:10+02:00</time>
      </trkpt>
      <trkpt lat="43.74803" lon="7.15841">
        <ele>373</ele>
        <time>2021-03-28T14:28:40+02:00</time>
      </trkpt>
      <trkpt lat="43.74814" lon="7.15813">
        <ele>375</ele>
        <time>2021-03-28T14:29:16+02:00</time>
      </trkpt>
      <trkpt lat="43.74815" lon="7.15782">
        <ele>377</ele>
        <time>2021-03-28T14:29:52+02:00</time>
      </trkpt>
      <trkpt lat="43.74817" lon="7.1575">
        <ele>387</ele>
        <time>2021-03-28T14:30:41+02:00</time>
      </trkpt>
      <trkpt lat="43.74811" lon="7.15718">
        <ele>391</ele>
        <time>2021-03-28T14:31:12+02:00</time>
      </trkpt>
      <trkpt lat="43.74804" lon="7.15689">
        <ele>390</ele>
        <time>2021-03-28T14:31:37+02:00</time>
      </trkpt>
      <trkpt lat="43.7481" lon="7.15658">
        <ele>393</ele>
        <time>2021-03-28T14:32:12+02:00</time>
      </trkpt>
      <trkpt lat="43.7483" lon="7.15644">
        <ele>397</ele>
        <time>2021-03-28T14:32:40+02:00</time>
      </trkpt>
      <trkpt lat="43.74847" lon="7.15622">
        <ele>402</ele>
        <time>2021-03-28T14:33:11+02:00</time>
      </trkpt>
      <trkpt lat="43.7486" lon="7.15595">
        <ele>402</ele>
        <time>2021-03-28T14:33:42+02:00</time>
      </trkpt>
      <trkpt lat="43.74862" lon="7.15564">
        <ele>407</ele>
        <time>2021-03-28T14:34:14+02:00</time>
      </trkpt>
      <trkpt lat="43.74857" lon="7.15533">
        <ele>410</ele>
        <time>2021-03-28T14:34:57+02:00</time>
      </trkpt>
      <trkpt lat="43.74843" lon="7.15505">
        <ele>415</ele>
        <time>2021-03-28T14:36:44+02:00</time>
      </trkpt>
      <trkpt lat="43.74858" lon="7.1548">
        <ele>407</ele>
        <time>2021-03-28T14:37:26+02:00</time>
      </trkpt>
      <trkpt lat="43.74873" lon="7.15455">
        <ele>408</ele>
        <time>2021-03-28T14:38:00+02:00</time>
      </trkpt>
      <trkpt lat="43.74896" lon="7.15456">
        <ele>417</ele>
        <time>2021-03-28T14:40:17+02:00</time>
      </trkpt>
      <trkpt lat="43.74918" lon="7.15447">
        <ele>418</ele>
        <time>2021-03-28T14:40:48+02:00</time>
      </trkpt>
      <trkpt lat="43.7491" lon="7.15417">
        <ele>425</ele>
        <time>2021-03-28T14:42:05+02:00</time>
      </trkpt>
      <trkpt lat="43.74911" lon="7.15385">
        <ele>424</ele>
        <time>2021-03-28T14:42:31+02:00</time>
      </trkpt>
      <trkpt lat="43.74903" lon="7.15356">
        <ele>423</ele>
        <time>2021-03-28T14:43:00+02:00</time>
      </trkpt>
      <trkpt lat="43.74909" lon="7.15326">
        <ele>422</ele>
        <time>2021-03-28T14:43:49+02:00</time>
      </trkpt>
      <trkpt lat="43.74923" lon="7.15301">
        <ele>426</ele>
        <time>2021-03-28T14:44:52+02:00</time>
      </trkpt>
      <trkpt lat="43.74932" lon="7.15272">
        <ele>429</ele>
        <time>2021-03-28T14:46:25+02:00</time>
      </trkpt>
      <trkpt lat="43.74936" lon="7.15241">
        <ele>436</ele>
        <time>2021-03-28T14:46:53+02:00</time>
      </trkpt>
      <trkpt lat="43.74935" lon="7.15209">
        <ele>439</ele>
        <time>2021-03-28T14:47:27+02:00</time>
      </trkpt>
      <trkpt lat="43.74944" lon="7.15181">
        <ele>441</ele>
        <time>2021-03-28T14:47:59+02:00</time>
      </trkpt>
      <trkpt lat="43.74944" lon="7.1515">
        <ele>444</ele>
        <time>2021-03-28T14:48:34+02:00</time>
      </trkpt>
      <trkpt lat="43.74941" lon="7.15118">
        <ele>449</ele>
        <time>2021-03-28T14:49:29+02:00</time>
      </trkpt>
      <trkpt lat="43.74928" lon="7.15092">
        <ele>451</ele>
        <time>2021-03-28T14:49:58+02:00</time>
      </trkpt>
      <trkpt lat="43.74911" lon="7.15071">
        <ele>456</ele>
        <time>2021-03-28T14:50:28+02:00</time>
      </trkpt>
      <trkpt lat="43.74897" lon="7.15047">
        <ele>461</ele>
        <time>2021-03-28T14:51:39+02:00</time>
      </trkpt>
      <trkpt lat="43.74895" lon="7.15016">
        <ele>465</ele>
        <time>2021-03-28T14:52:25+02:00</time>
      </trkpt>
      <trkpt lat="43.74901" lon="7.14986">
        <ele>469</ele>
        <time>2021-03-28T14:54:52+02:00</time>
      </trkpt>
      <trkpt lat="43.74902" lon="7.14954">
        <ele>470</ele>
        <time>2021-03-28T14:55:18+02:00</time>
      </trkpt>
      <trkpt lat="43.74911" lon="7.14925">
        <ele>467</ele>
        <time>2021-03-28T14:55:47+02:00</time>
      </trkpt>
      <trkpt lat="43.74928" lon="7.14904">
        <ele>468</ele>
        <time>2021-03-28T14:56:15+02:00</time>
      </trkpt>
      <trkpt lat="43.74941" lon="7.14878">
        <ele>468</ele>
        <time>2021-03-28T14:56:42+02:00</time>
      </trkpt>
      <trkpt lat="43.74954" lon="7.14851">
        <ele>471</ele>
        <time>2021-03-28T14:57:08+02:00</time>
      </trkpt>
      <trkpt lat="43.74964" lon="7.14822">
        <ele>472</ele>
        <time>2021-03-28T14:57:41+02:00</time>
      </trkpt>
      <trkpt lat="43.74976" lon="7.14795">
        <ele>468</ele>
        <time>2021-03-28T14:58:15+02:00</time>
      </trkpt>
      <trkpt lat="43.74979" lon="7.14763">
        <ele>467</ele>
        <time>2021-03-28T14:58:43+02:00</time>
      </trkpt>
      <trkpt lat="43.74987" lon="7.14733">
        <ele>469</ele>
        <time>2021-03-28T14:59:07+02:00</time>
      </trkpt>
      <trkpt lat="43.74995" lon="7.14703">
        <ele>471</ele>
        <time>2021-03-28T14:59:34+02:00</time>
      </trkpt>
      <trkpt lat="43.75003" lon="7.14674">
        <ele>474</ele>
        <time>2021-03-28T14:59:59+02:00</time>
      </trkpt>
      <trkpt lat="43.7501" lon="7.14644">
        <ele>476</ele>
        <time>2021-03-28T15:00:28+02:00</time>
      </trkpt>
      <trkpt lat="43.75025" lon="7.1462">
        <ele>477</ele>
        <time>2021-03-28T15:01:00+02:00</time>
      </trkpt>
      <trkpt lat="43.75026" lon="7.14588">
        <ele>478</ele>
        <time>2021-03-28T15:01:24+02:00</time>
      </trkpt>
      <trkpt lat="43.75033" lon="7.14558">
        <ele>479</ele>
        <time>2021-03-28T15:01:58+02:00</time>
      </trkpt>
      <trkpt lat="43.75038" lon="7.14526">
        <ele>481</ele>
        <time>2021-03-28T15:02:36+02:00</time>
      </trkpt>
      <trkpt lat="43.75036" lon="7.14495">
        <ele>477</ele>
        <time>2021-03-28T15:03:16+02:00</time>
      </trkpt>
      <trkpt lat="43.75035" lon="7.14463">
        <ele>471</ele>
        <time>2021-03-28T15:03:43+02:00</time>
      </trkpt>
      <trkpt lat="43.75038" lon="7.14431">
        <ele>470</ele>
        <time>2021-03-28T15:04:27+02:00</time>
      </trkpt>
      <trkpt lat="43.75021" lon="7.14411">
        <ele>469</ele>
        <time>2021-03-28T15:04:57+02:00</time>
      </trkpt>
      <trkpt lat="43.74998" lon="7.14408">
        <ele>468</ele>
        <time>2021-03-28T15:05:24+02:00</time>
      </trkpt>
      <trkpt lat="43.74976" lon="7.14397">
        <ele>469</ele>
        <time>2021-03-28T15:05:48+02:00</time>
      </trkpt>
      <trkpt lat="43.74955" lon="7.14386">
        <ele>468</ele>
        <time>2021-03-28T15:06:10+02:00</time>
      </trkpt>
      <trkpt lat="43.74934" lon="7.14374">
        <ele>471</ele>
        <time>2021-03-28T15:06:36+02:00</time>
      </trkpt>
      <trkpt lat="43.74911" lon="7.14366">
        <ele>472</ele>
        <time>2021-03-28T15:07:00+02:00</time>
      </trkpt>
      <trkpt lat="43.74889" lon="7.14358">
        <ele>471</ele>
        <time>2021-03-28T15:07:23+02:00</time>
      </trkpt>
      <trkpt lat="43.74867" lon="7.14356">
        <ele>473</ele>
        <time>2021-03-28T15:07:48+02:00</time>
      </trkpt>
      <trkpt lat="43.74843" lon="7.14354">
        <ele>478</ele>
        <time>2021-03-28T15:08:45+02:00</time>
      </trkpt>
      <trkpt lat="43.74822" lon="7.14339">
        <ele>478</ele>
        <time>2021-03-28T15:09:32+02:00</time>
      </trkpt>
      <trkpt lat="43.74799" lon="7.14331">
        <ele>477</ele>
        <time>2021-03-28T15:10:00+02:00</time>
      </trkpt>
      <trkpt lat="43.74778" lon="7.1432">
        <ele>484</ele>
        <time>2021-03-28T15:10:41+02:00</time>
      </trkpt>
      <trkpt lat="43.74761" lon="7.14299">
        <ele>481</ele>
        <time>2021-03-28T15:11:01+02:00</time>
      </trkpt>
      <trkpt lat="43.74749" lon="7.14273">
        <ele>484</ele>
        <time>2021-03-28T15:11:39+02:00</time>
      </trkpt>
      <trkpt lat="43.74748" lon="7.14242">
        <ele>484</ele>
        <time>2021-03-28T15:12:22+02:00</time>
      </trkpt>
      <trkpt lat="43.7477" lon="7.14234">
        <ele>486</ele>
        <time>2021-03-28T15:15:33+02:00</time>
      </trkpt>
      <trkpt lat="43.74747" lon="7.14231">
        <ele>489</ele>
        <time>2021-03-28T15:16:20+02:00</time>
      </trkpt>
      <trkpt lat="43.74733" lon="7.14204">
        <ele>493</ele>
        <time>2021-03-28T15:16:44+02:00</time>
      </trkpt>
      <trkpt lat="43.74731" lon="7.14173">
        <ele>491</ele>
        <time>2021-03-28T15:17:16+02:00</time>
      </trkpt>
      <trkpt lat="43.7474" lon="7.14144">
        <ele>490</ele>
        <time>2021-03-28T15:17:35+02:00</time>
      </trkpt>
      <trkpt lat="43.74735" lon="7.14113">
        <ele>492</ele>
        <time>2021-03-28T15:18:01+02:00</time>
      </trkpt>
      <trkpt lat="43.74738" lon="7.14082">
        <ele>490</ele>
        <time>2021-03-28T15:18:26+02:00</time>
      </trkpt>
      <trkpt lat="43.74749" lon="7.14054">
        <ele>486</ele>
        <time>2021-03-28T15:18:51+02:00</time>
      </trkpt>
      <trkpt lat="43.74756" lon="7.14024">
        <ele>485</ele>
        <time>2021-03-28T15:19:14+02:00</time>
      </trkpt>
      <trkpt lat="43.74758" lon="7.13993">
        <ele>485</ele>
        <time>2021-03-28T15:19:32+02:00</time>
      </trkpt>
      <trkpt lat="43.74768" lon="7.13965">
        <ele>486</ele>
        <time>2021-03-28T15:19:55+02:00</time>
      </trkpt>
      <trkpt lat="43.7477" lon="7.13934">
        <ele>490</ele>
        <time>2021-03-28T15:20:22+02:00</time>
      </trkpt>
      <trkpt lat="43.74779" lon="7.13905">
        <ele>487</ele>
        <time>2021-03-28T15:21:17+02:00</time>
      </trkpt>
      <trkpt lat="43.7479" lon="7.13876">
        <ele>484</ele>
        <time>2021-03-28T15:21:49+02:00</time>
      </trkpt>
      <trkpt lat="43.74801" lon="7.13848">
        <ele>485</ele>
        <time>2021-03-28T15:22:14+02:00</time>
      </trkpt>
      <trkpt lat="43.74811" lon="7.13819">
        <ele>485</ele>
        <time>2021-03-28T15:22:40+02:00</time>
      </trkpt>
      <trkpt lat="43.7482" lon="7.1379">
        <ele>488</ele>
        <time>2021-03-28T15:24:16+02:00</time>
      </trkpt>
      <trkpt lat="43.74842" lon="7.13798">
        <ele>484</ele>
        <time>2021-03-28T15:28:52+02:00</time>
      </trkpt>
      <trkpt lat="43.74864" lon="7.13788">
        <ele>493</ele>
        <time>2021-03-28T15:30:45+02:00</time>
      </trkpt>
      <trkpt lat="43.74887" lon="7.13796">
        <ele>504</ele>
        <time>2021-03-28T15:31:52+02:00</time>
      </trkpt>
      <trkpt lat="43.74866" lon="7.13784">
        <ele>502</ele>
        <time>2021-03-28T15:34:09+02:00</time>
      </trkpt>
      <trkpt lat="43.74844" lon="7.13777">
        <ele>495</ele>
        <time>2021-03-28T15:35:26+02:00</time>
      </trkpt>
      <trkpt lat="43.74822" lon="7.13784">
        <ele>487</ele>
        <time>2021-03-28T15:36:45+02:00</time>
      </trkpt>
      <trkpt lat="43.74817" lon="7.13815">
        <ele>489</ele>
        <time>2021-03-28T15:37:15+02:00</time>
      </trkpt>
      <trkpt lat="43.74806" lon="7.13842">
        <ele>487</ele>
        <time>2021-03-28T15:37:38+02:00</time>
      </trkpt>
      <trkpt lat="43.74791" lon="7.13867">
        <ele>486</ele>
        <time>2021-03-28T15:38:14+02:00</time>
      </trkpt>
      <trkpt lat="43.74775" lon="7.1389">
        <ele>485</ele>
        <time>2021-03-28T15:38:35+02:00</time>
      </trkpt>
      <trkpt lat="43.74774" lon="7.13921">
        <ele>488</ele>
        <time>2021-03-28T15:39:01+02:00</time>
      </trkpt>
      <trkpt lat="43.74769" lon="7.13952">
        <ele>486</ele>
        <time>2021-03-28T15:39:35+02:00</time>
      </trkpt>
      <trkpt lat="43.74762" lon="7.13982">
        <ele>486</ele>
        <time>2021-03-28T15:39:57+02:00</time>
      </trkpt>
      <trkpt lat="43.74756" lon="7.14013">
        <ele>486</ele>
        <time>2021-03-28T15:40:21+02:00</time>
      </trkpt>
      <trkpt lat="43.74751" lon="7.14044">
        <ele>484</ele>
        <time>2021-03-28T15:40:41+02:00</time>
      </trkpt>
      <trkpt lat="43.74742" lon="7.14073">
        <ele>486</ele>
        <time>2021-03-28T15:41:02+02:00</time>
      </trkpt>
      <trkpt lat="43.74732" lon="7.14101">
        <ele>489</ele>
        <time>2021-03-28T15:41:24+02:00</time>
      </trkpt>
      <trkpt lat="43.74737" lon="7.14133">
        <ele>483</ele>
        <time>2021-03-28T15:41:53+02:00</time>
      </trkpt>
      <trkpt lat="43.74739" lon="7.14165">
        <ele>481</ele>
        <time>2021-03-28T15:42:19+02:00</time>
      </trkpt>
      <trkpt lat="43.74738" lon="7.142">
        <ele>485</ele>
        <time>2021-03-28T15:42:41+02:00</time>
      </trkpt>
      <trkpt lat="43.74719" lon="7.14215">
        <ele>484</ele>
        <time>2021-03-28T15:43:41+02:00</time>
      </trkpt>
      <trkpt lat="43.74698" lon="7.1423">
        <ele>481</ele>
        <time>2021-03-28T15:44:30+02:00</time>
      </trkpt>
      <trkpt lat="43.74675" lon="7.14239">
        <ele>478</ele>
        <time>2021-03-28T15:45:15+02:00</time>
      </trkpt>
      <trkpt lat="43.74692" lon="7.14258">
        <ele>479</ele>
        <time>2021-03-28T15:46:17+02:00</time>
      </trkpt>
      <trkpt lat="43.74697" lon="7.14291">
        <ele>477</ele>
        <time>2021-03-28T15:46:47+02:00</time>
      </trkpt>
      <trkpt lat="43.7472" lon="7.14293">
        <ele>477</ele>
        <time>2021-03-28T15:48:36+02:00</time>
      </trkpt>
      <trkpt lat="43.74718" lon="7.14326">
        <ele>486</ele>
        <time>2021-03-28T15:49:55+02:00</time>
      </trkpt>
      <trkpt lat="43.74697" lon="7.14313">
        <ele>486</ele>
        <time>2021-03-28T15:50:50+02:00</time>
      </trkpt>
      <trkpt lat="43.74687" lon="7.14342">
        <ele>487</ele>
        <time>2021-03-28T15:51:22+02:00</time>
      </trkpt>
      <trkpt lat="43.74705" lon="7.14362">
        <ele>479</ele>
        <time>2021-03-28T15:53:20+02:00</time>
      </trkpt>
      <trkpt lat="43.74724" lon="7.14344">
        <ele>479</ele>
        <time>2021-03-28T15:54:04+02:00</time>
      </trkpt>
      <trkpt lat="43.74747" lon="7.14343">
        <ele>487</ele>
        <time>2021-03-28T15:54:44+02:00</time>
      </trkpt>
      <trkpt lat="43.74764" lon="7.1432">
        <ele>484</ele>
        <time>2021-03-28T15:55:35+02:00</time>
      </trkpt>
      <trkpt lat="43.74782" lon="7.14338">
        <ele>483</ele>
        <time>2021-03-28T15:56:02+02:00</time>
      </trkpt>
      <trkpt lat="43.74802" lon="7.14353">
        <ele>479</ele>
        <time>2021-03-28T15:56:33+02:00</time>
      </trkpt>
      <trkpt lat="43.74823" lon="7.14366">
        <ele>478</ele>
        <time>2021-03-28T15:56:59+02:00</time>
      </trkpt>
      <trkpt lat="43.74805" lon="7.14386">
        <ele>473</ele>
        <time>2021-03-28T15:57:31+02:00</time>
      </trkpt>
      <trkpt lat="43.74783" lon="7.14392">
        <ele>474</ele>
        <time>2021-03-28T15:58:06+02:00</time>
      </trkpt>
      <trkpt lat="43.74763" lon="7.14408">
        <ele>474</ele>
        <time>2021-03-28T15:58:23+02:00</time>
      </trkpt>
      <trkpt lat="43.74743" lon="7.14393">
        <ele>470</ele>
        <time>2021-03-28T16:00:11+02:00</time>
      </trkpt>
      <trkpt lat="43.7472" lon="7.14391">
        <ele>472</ele>
        <time>2021-03-28T16:00:39+02:00</time>
      </trkpt>
      <trkpt lat="43.74701" lon="7.14372">
        <ele>459</ele>
        <time>2021-03-28T16:01:43+02:00</time>
      </trkpt>
      <trkpt lat="43.74682" lon="7.14353">
        <ele>464</ele>
        <time>2021-03-28T16:02:31+02:00</time>
      </trkpt>
      <trkpt lat="43.74663" lon="7.14336">
        <ele>453</ele>
        <time>2021-03-28T16:03:53+02:00</time>
      </trkpt>
      <trkpt lat="43.74656" lon="7.14366">
        <ele>446</ele>
        <time>2021-03-28T16:05:20+02:00</time>
      </trkpt>
      <trkpt lat="43.74634" lon="7.14358">
        <ele>438</ele>
        <time>2021-03-28T16:06:18+02:00</time>
      </trkpt>
      <trkpt lat="43.74638" lon="7.14389">
        <ele>436</ele>
        <time>2021-03-28T16:07:49+02:00</time>
      </trkpt>
      <trkpt lat="43.74618" lon="7.14404">
        <ele>428</ele>
        <time>2021-03-28T16:08:28+02:00</time>
      </trkpt>
      <trkpt lat="43.74628" lon="7.14432">
        <ele>427</ele>
        <time>2021-03-28T16:09:26+02:00</time>
      </trkpt>
      <trkpt lat="43.74622" lon="7.14463">
        <ele>432</ele>
        <time>2021-03-28T16:14:10+02:00</time>
      </trkpt>
      <trkpt lat="43.74617" lon="7.14494">
        <ele>420</ele>
        <time>2021-03-28T16:15:10+02:00</time>
      </trkpt>
      <trkpt lat="43.746" lon="7.14519">
        <ele>413</ele>
        <time>2021-03-28T16:16:01+02:00</time>
      </trkpt>
      <trkpt lat="43.74579" lon="7.14532">
        <ele>411</ele>
        <time>2021-03-28T16:17:00+02:00</time>
      </trkpt>
      <trkpt lat="43.74565" lon="7.14558">
        <ele>400</ele>
        <time>2021-03-28T16:18:29+02:00</time>
      </trkpt>
      <trkpt lat="43.7455" lon="7.14581">
        <ele>403</ele>
        <time>2021-03-28T16:19:13+02:00</time>
      </trkpt>
      <trkpt lat="43.74527" lon="7.14578">
        <ele>391</ele>
        <time>2021-03-28T16:19:57+02:00</time>
      </trkpt>
      <trkpt lat="43.74505" lon="7.1459">
        <ele>391</ele>
        <time>2021-03-28T16:20:54+02:00</time>
      </trkpt>
      <trkpt lat="43.74486" lon="7.14607">
        <ele>385</ele>
        <time>2021-03-28T16:21:46+02:00</time>
      </trkpt>
      <trkpt lat="43.74473" lon="7.14633">
        <ele>377</ele>
        <time>2021-03-28T16:22:55+02:00</time>
      </trkpt>
      <trkpt lat="43.74455" lon="7.14653">
        <ele>363</ele>
        <time>2021-03-28T16:24:01+02:00</time>
      </trkpt>
      <trkpt lat="43.74436" lon="7.14671">
        <ele>359</ele>
        <time>2021-03-28T16:25:10+02:00</time>
      </trkpt>
      <trkpt lat="43.74417" lon="7.14652">
        <ele>362</ele>
        <time>2021-03-28T16:25:41+02:00</time>
      </trkpt>
      <trkpt lat="43.74396" lon="7.14636">
        <ele>362</ele>
        <time>2021-03-28T16:26:14+02:00</time>
      </trkpt>
      <trkpt lat="43.74379" lon="7.14655">
        <ele>358</ele>
        <time>2021-03-28T16:27:08+02:00</time>
      </trkpt>
      <trkpt lat="43.74378" lon="7.14689">
        <ele>359</ele>
        <time>2021-03-28T16:27:32+02:00</time>
      </trkpt>
      <trkpt lat="43.74361" lon="7.14709">
        <ele>356</ele>
        <time>2021-03-28T16:27:58+02:00</time>
      </trkpt>
      <trkpt lat="43.74345" lon="7.14733">
        <ele>350</ele>
        <time>2021-03-28T16:28:22+02:00</time>
      </trkpt>
      <trkpt lat="43.7433" lon="7.14756">
        <ele>343</ele>
        <time>2021-03-28T16:28:51+02:00</time>
      </trkpt>
      <trkpt lat="43.74312" lon="7.14777">
        <ele>343</ele>
        <time>2021-03-28T16:29:17+02:00</time>
      </trkpt>
      <trkpt lat="43.74298" lon="7.14802">
        <ele>343</ele>
        <time>2021-03-28T16:29:41+02:00</time>
      </trkpt>
      <trkpt lat="43.74289" lon="7.14831">
        <ele>337</ele>
        <time>2021-03-28T16:30:04+02:00</time>
      </trkpt>
      <trkpt lat="43.74277" lon="7.14858">
        <ele>336</ele>
        <time>2021-03-28T16:30:30+02:00</time>
      </trkpt>
      <trkpt lat="43.74268" lon="7.14887">
        <ele>336</ele>
        <time>2021-03-28T16:30:52+02:00</time>
      </trkpt>
      <trkpt lat="43.74252" lon="7.14909">
        <ele>335</ele>
        <time>2021-03-28T16:31:14+02:00</time>
      </trkpt>
      <trkpt lat="43.74231" lon="7.14918">
        <ele>334</ele>
        <time>2021-03-28T16:31:37+02:00</time>
      </trkpt>
    </trkseg>
  </trk>
</gpx>